createdAt,value
2018-11-26T00:01:19.213Z,3.47
2018-11-26T00:03:46.184Z,3.42
2018-11-26T00:06:13.393Z,3.40
2018-11-26T00:08:41.176Z,3.36
2018-11-26T00:11:42.835Z,3.36
2018-11-26T00:14:10.347Z,3.32
2018-11-26T00:16:37.297Z,3.31
2018-11-26T00:19:05.156Z,3.29
2018-11-26T00:21:32.117Z,3.31
2018-11-26T00:23:59.080Z,3.34
2018-11-26T00:26:26.010Z,3.40
2018-11-26T00:28:53.146Z,3.30
2018-11-26T00:31:20.073Z,3.21
2018-11-26T00:33:47.021Z,3.18
2018-11-26T00:36:13.998Z,3.20
2018-11-26T00:38:41.063Z,3.27
2018-11-26T00:41:08.085Z,3.35
2018-11-26T00:43:35.177Z,3.41
2018-11-26T00:46:02.095Z,3.48
2018-11-26T00:48:29.005Z,3.56
2018-11-26T00:50:55.922Z,3.64
2018-11-26T00:53:22.834Z,3.69
2018-11-26T00:55:49.745Z,3.71
2018-11-26T00:58:16.654Z,3.75
2018-11-26T01:00:43.568Z,3.81
2018-11-26T01:03:10.490Z,3.86
2018-11-26T01:05:39.273Z,3.87
2018-11-26T01:08:06.253Z,3.87
2018-11-26T01:10:33.170Z,3.86
2018-11-26T01:13:00.097Z,3.88
2018-11-26T01:15:27.018Z,3.89
2018-11-26T01:17:53.947Z,3.87
2018-11-26T01:20:20.937Z,3.84
2018-11-26T01:22:47.849Z,3.81
2018-11-26T01:25:14.905Z,3.70
2018-11-26T01:27:41.830Z,3.61
2018-11-26T01:30:09.001Z,3.47
2018-11-26T01:32:35.989Z,3.46
2018-11-26T01:35:02.978Z,3.55
2018-11-26T01:37:29.927Z,3.61
2018-11-26T01:39:56.821Z,3.64
2018-11-26T01:42:23.744Z,3.66
2018-11-26T01:44:50.709Z,3.68
2018-11-26T01:47:17.625Z,3.70
2018-11-26T01:49:44.536Z,3.74
2018-11-26T01:52:11.449Z,3.73
2018-11-26T01:54:38.350Z,3.76
2018-11-26T01:57:05.337Z,3.82
2018-11-26T01:59:32.239Z,3.84
2018-11-26T02:01:59.157Z,3.88
2018-11-26T02:04:26.063Z,3.88
2018-11-26T02:06:52.981Z,3.93
2018-11-26T02:09:19.909Z,3.92
2018-11-26T02:11:46.824Z,3.87
2018-11-26T02:14:13.806Z,3.86
2018-11-26T02:16:40.717Z,3.83
2018-11-26T02:19:07.631Z,3.81
2018-11-26T02:21:34.544Z,3.79
2018-11-26T02:24:01.489Z,3.79
2018-11-26T02:26:28.408Z,3.76
2018-11-26T02:28:55.306Z,3.75
2018-11-26T02:31:22.201Z,3.69
2018-11-26T02:33:49.094Z,3.73
2018-11-26T02:36:16.011Z,3.68
2018-11-26T02:38:42.896Z,3.68
2018-11-26T02:41:09.810Z,3.63
2018-11-26T02:43:36.720Z,3.58
2018-11-26T02:46:03.666Z,3.60
2018-11-26T02:48:30.565Z,3.57
2018-11-26T02:50:57.462Z,3.56
2018-11-26T02:53:24.353Z,3.53
2018-11-26T02:55:51.600Z,3.52
2018-11-26T02:58:18.525Z,3.52
2018-11-26T03:00:46.207Z,3.37
2018-11-26T03:03:14.001Z,3.41
2018-11-26T03:05:40.962Z,3.36
2018-11-26T03:08:07.922Z,3.31
2018-11-26T03:10:34.833Z,3.21
2018-11-26T03:13:01.751Z,3.12
2018-11-26T03:15:28.645Z,3.07
2018-11-26T03:17:55.574Z,2.99
2018-11-26T03:20:22.485Z,2.94
2018-11-26T03:22:49.406Z,2.93
2018-11-26T03:25:16.326Z,2.90
2018-11-26T03:27:43.246Z,2.87
2018-11-26T03:30:11.600Z,2.88
2018-11-26T03:32:38.558Z,2.88
2018-11-26T03:35:06.488Z,2.88
2018-11-26T03:37:33.413Z,2.91
2018-11-26T03:40:00.329Z,2.90
2018-11-26T03:42:27.276Z,2.89
2018-11-26T03:44:54.171Z,2.96
2018-11-26T03:47:21.088Z,2.96
2018-11-26T03:49:48.001Z,2.97
2018-11-26T03:52:14.929Z,2.99
2018-11-26T03:54:41.839Z,3.04
2018-11-26T03:57:08.747Z,3.07
2018-11-26T03:59:35.685Z,3.05
2018-11-26T04:02:02.614Z,3.04
2018-11-26T04:04:29.537Z,3.03
2018-11-26T04:06:56.457Z,3.00
2018-11-26T04:09:23.380Z,2.98
2018-11-26T04:11:50.293Z,2.97
2018-11-26T04:14:17.214Z,3.03
2018-11-26T04:16:44.133Z,3.13
2018-11-26T04:19:11.047Z,3.17
2018-11-26T04:21:37.969Z,3.19
2018-11-26T04:24:05.188Z,3.21
2018-11-26T04:26:32.107Z,3.20
2018-11-26T04:28:59.034Z,3.18
2018-11-26T04:31:26.023Z,3.19
2018-11-26T04:33:52.986Z,3.22
2018-11-26T04:36:20.013Z,3.26
2018-11-26T04:38:46.942Z,3.29
2018-11-26T04:41:13.886Z,3.29
2018-11-26T04:43:40.801Z,3.30
2018-11-26T04:46:07.768Z,3.22
2018-11-26T04:48:34.680Z,3.11
2018-11-26T04:51:01.584Z,3.06
2018-11-26T04:53:28.489Z,2.98
2018-11-26T04:55:55.386Z,2.91
2018-11-26T04:58:22.311Z,2.86
2018-11-26T05:00:49.213Z,2.81
2018-11-26T05:03:16.150Z,2.85
2018-11-26T05:05:43.053Z,2.80
2018-11-26T05:08:09.998Z,2.71
2018-11-26T05:10:36.904Z,2.63
2018-11-26T05:13:03.864Z,2.63
2018-11-26T05:15:30.769Z,2.65
2018-11-26T05:18:02.070Z,2.63
2018-11-26T05:20:29.013Z,2.60
2018-11-26T05:22:55.917Z,2.55
2018-11-26T05:25:22.813Z,2.56
2018-11-26T05:27:49.700Z,2.53
2018-11-26T05:30:16.620Z,2.50
2018-11-26T05:32:43.492Z,2.47
2018-11-26T05:35:11.263Z,2.53
2018-11-26T05:37:38.175Z,2.46
2018-11-26T05:40:08.566Z,2.42
2018-11-26T05:42:35.465Z,2.35
2018-11-26T05:45:02.550Z,2.33
2018-11-26T05:47:29.422Z,2.26
2018-11-26T05:49:56.329Z,2.24
2018-11-26T05:52:23.214Z,2.21
2018-11-26T05:54:50.109Z,2.20
2018-11-26T05:57:17.002Z,2.22
2018-11-26T05:59:43.932Z,2.13
2018-11-26T06:02:10.833Z,2.06
2018-11-26T06:04:37.745Z,1.99
2018-11-26T06:07:04.812Z,2.02
2018-11-26T06:09:31.717Z,1.94
2018-11-26T06:11:58.604Z,1.89
2018-11-26T06:14:25.500Z,1.89
2018-11-26T06:16:53.644Z,1.89
2018-11-26T06:19:19.295Z,1.92
2018-11-26T06:21:46.189Z,1.96
2018-11-26T06:24:13.100Z,2.01
2018-11-26T06:26:39.981Z,2.04
2018-11-26T06:29:06.865Z,2.07
2018-11-26T06:31:33.780Z,2.13
2018-11-26T06:34:00.662Z,2.19
2018-11-26T06:36:27.566Z,2.23
2018-11-26T06:38:54.734Z,2.24
2018-11-26T06:41:21.635Z,2.24
2018-11-26T06:43:48.529Z,2.38
2018-11-26T06:46:15.422Z,2.42
2018-11-26T06:48:42.303Z,2.49
2018-11-26T06:51:09.205Z,2.56
2018-11-26T06:53:36.107Z,2.58
2018-11-26T06:56:03.012Z,2.66
2018-11-26T06:58:29.906Z,2.68
2018-11-26T07:00:57.627Z,2.71
2018-11-26T07:03:24.533Z,2.76
2018-11-26T07:05:51.428Z,2.78
2018-11-26T07:08:18.326Z,2.79
2018-11-26T07:10:45.233Z,2.80
2018-11-26T07:13:12.189Z,2.80
2018-11-26T07:15:39.097Z,2.79
2018-11-26T07:18:06.537Z,2.75
2018-11-26T07:20:33.450Z,2.77
2018-11-26T07:23:00.358Z,2.78
2018-11-26T07:25:27.259Z,2.83
2018-11-26T07:27:54.295Z,2.90
2018-11-26T07:30:23.292Z,2.95
2018-11-26T07:32:50.201Z,2.99
2018-11-26T07:35:17.123Z,3.03
2018-11-26T07:37:44.039Z,3.09
2018-11-26T07:40:13.055Z,3.06
2018-11-26T07:42:41.721Z,3.12
2018-11-26T07:45:10.202Z,3.13
2018-11-26T07:47:37.134Z,3.15
2018-11-26T07:50:06.293Z,3.22
2018-11-26T07:52:33.193Z,3.25
2018-11-26T07:55:00.087Z,3.26
2018-11-26T07:57:26.989Z,3.26
2018-11-26T07:59:53.877Z,3.30
2018-11-26T08:02:20.777Z,3.31
2018-11-26T08:04:47.697Z,3.32
2018-11-26T08:07:14.601Z,3.37
2018-11-26T08:09:42.361Z,3.38
2018-11-26T08:12:08.420Z,3.37
2018-11-26T08:14:35.326Z,3.33
2018-11-26T08:17:02.229Z,3.34
2018-11-26T08:19:29.124Z,3.40
2018-11-26T08:21:56.038Z,3.43
2018-11-26T08:24:22.962Z,3.44
2018-11-26T08:26:49.855Z,3.48
2018-11-26T08:29:16.756Z,3.47
2018-11-26T08:31:43.656Z,3.49
2018-11-26T08:34:10.584Z,3.56
2018-11-26T08:36:42.511Z,3.59
2018-11-26T08:39:14.329Z,3.64
2018-11-26T08:41:47.200Z,3.67
2018-11-26T08:44:18.733Z,3.72
2018-11-26T08:46:46.686Z,3.74
2018-11-26T08:49:18.549Z,3.76
2018-11-26T08:51:45.453Z,3.74
2018-11-26T08:54:13.035Z,3.71
2018-11-26T08:56:39.990Z,3.64
2018-11-26T08:59:06.898Z,3.67
2018-11-26T09:01:34.427Z,3.69
2018-11-26T09:04:03.623Z,3.74
2018-11-26T09:06:30.794Z,3.78
2018-11-26T09:08:57.704Z,3.79
2018-11-26T09:11:24.611Z,3.79
2018-11-26T09:13:52.431Z,3.78
2018-11-26T09:16:20.059Z,3.94
2018-11-26T09:18:47.496Z,3.94
2018-11-26T09:21:14.417Z,3.91
2018-11-26T09:23:41.314Z,3.92
2018-11-26T09:26:08.217Z,3.88
2018-11-26T09:28:35.118Z,3.89
2018-11-26T09:31:02.041Z,3.93
2018-11-26T09:33:28.933Z,3.90
2018-11-26T09:35:55.829Z,3.80
2018-11-26T09:38:22.725Z,3.78
2018-11-26T09:40:49.665Z,3.80
2018-11-26T09:43:16.557Z,3.92
2018-11-26T09:45:43.452Z,4.00
2018-11-26T09:48:10.374Z,4.11
2018-11-26T09:50:37.289Z,4.21
2018-11-26T09:53:04.467Z,4.28
2018-11-26T09:55:31.374Z,4.15
2018-11-26T09:57:58.278Z,4.14
2018-11-26T10:00:25.238Z,4.17
2018-11-26T10:02:52.160Z,4.15
2018-11-26T10:05:20.289Z,4.10
2018-11-26T10:07:47.191Z,4.07
2018-11-26T10:10:14.214Z,4.10
2018-11-26T10:12:41.983Z,4.08
2018-11-26T10:15:12.356Z,4.09
2018-11-26T10:17:39.253Z,4.14
2018-11-26T10:20:07.318Z,4.11
2018-11-26T10:22:34.894Z,4.08
2018-11-26T10:25:06.040Z,4.01
2018-11-26T10:27:28.750Z,4.11
2018-11-26T10:29:55.641Z,4.22
2018-11-26T10:32:22.544Z,4.24
2018-11-26T10:34:49.430Z,4.26
2018-11-26T10:37:17.514Z,4.36
2018-11-26T10:39:45.504Z,4.30
2018-11-26T10:42:14.327Z,4.26
2018-11-26T10:44:41.265Z,4.23
2018-11-26T10:47:08.161Z,4.28
2018-11-26T10:49:36.248Z,4.51
2018-11-26T10:52:04.479Z,4.66
2018-11-26T10:54:31.397Z,4.76
2018-11-26T10:56:58.304Z,4.75
2018-11-26T10:59:25.261Z,4.70
2018-11-26T11:02:01.455Z,4.52
2018-11-26T11:04:28.717Z,4.49
2018-11-26T11:06:55.951Z,4.45
2018-11-26T11:09:22.589Z,4.53
2018-11-26T11:11:49.513Z,4.59
2018-11-26T11:14:16.413Z,4.51
2018-11-26T11:16:43.323Z,4.50
2018-11-26T11:19:10.322Z,4.49
2018-11-26T11:21:37.220Z,4.40
2018-11-26T11:24:04.161Z,4.36
2018-11-26T11:26:31.125Z,4.40
2018-11-26T11:28:58.072Z,4.29
2018-11-26T11:31:24.994Z,4.25
2018-11-26T11:33:51.919Z,4.28
2018-11-26T11:36:18.880Z,4.34
2018-11-26T11:38:45.828Z,4.46
2018-11-26T11:41:12.892Z,4.41
2018-11-26T11:43:39.806Z,4.49
2018-11-26T11:46:06.743Z,4.52
2018-11-26T11:48:33.666Z,4.66
2018-11-26T11:51:00.632Z,4.74
2018-11-26T11:53:27.530Z,4.71
2018-11-26T11:55:54.458Z,4.80
2018-11-26T11:58:21.391Z,4.87
2018-11-26T12:00:48.948Z,4.90
2018-11-26T12:03:17.201Z,4.95
2018-11-26T12:05:44.157Z,5.06
2018-11-26T12:08:11.081Z,5.13
2018-11-26T12:10:38.026Z,5.16
2018-11-26T12:13:06.582Z,5.20
2018-11-26T12:15:33.834Z,5.15
2018-11-26T12:18:00.743Z,5.21
2018-11-26T12:20:27.638Z,5.25
2018-11-26T12:22:54.575Z,5.27
2018-11-26T12:25:21.526Z,5.27
2018-11-26T12:27:48.436Z,5.27
2018-11-26T12:30:18.339Z,5.29
2018-11-26T12:32:45.284Z,5.31
2018-11-26T12:35:12.209Z,5.17
2018-11-26T12:37:39.119Z,4.96
2018-11-26T12:40:09.083Z,4.93
2018-11-26T12:42:36.001Z,4.89
2018-11-26T12:45:03.087Z,4.87
2018-11-26T12:47:29.999Z,4.86
2018-11-26T12:49:56.945Z,4.93
2018-11-26T12:52:23.900Z,4.93
2018-11-26T12:54:50.803Z,4.93
2018-11-26T12:57:17.739Z,4.91
2018-11-26T12:59:44.626Z,4.93
2018-11-26T13:02:11.536Z,4.89
2018-11-26T13:04:38.466Z,4.84
2018-11-26T13:07:05.474Z,4.87
2018-11-26T13:09:32.398Z,4.86
2018-11-26T13:11:59.316Z,4.83
2018-11-26T13:14:26.235Z,4.84
2018-11-26T13:16:53.147Z,4.81
2018-11-26T13:19:20.071Z,4.72
2018-11-26T13:21:46.975Z,4.65
2018-11-26T13:24:13.892Z,4.54
2018-11-26T13:26:40.823Z,4.50
2018-11-26T13:29:07.735Z,4.42
2018-11-26T13:31:34.655Z,4.39
2018-11-26T13:34:01.568Z,4.33
2018-11-26T13:36:28.446Z,4.29
2018-11-26T13:38:55.345Z,4.31
2018-11-26T13:41:22.238Z,4.32
2018-11-26T13:43:49.127Z,4.33
2018-11-26T13:46:16.047Z,4.33
2018-11-26T13:48:42.950Z,4.33
2018-11-26T13:51:09.853Z,4.39
2018-11-26T13:53:36.758Z,4.42
2018-11-26T13:56:03.659Z,4.47
2018-11-26T13:58:30.589Z,4.51
2018-11-26T14:00:57.478Z,4.49
2018-11-26T14:03:24.386Z,4.49
2018-11-26T14:05:51.273Z,4.46
2018-11-26T14:08:18.180Z,4.49
2018-11-26T14:10:45.071Z,4.47
2018-11-26T14:13:13.379Z,4.47
2018-11-26T14:15:40.301Z,4.42
2018-11-26T14:18:07.194Z,4.47
2018-11-26T14:20:34.135Z,4.50
2018-11-26T14:23:01.031Z,4.47
2018-11-26T14:25:27.934Z,4.45
2018-11-26T14:27:54.842Z,4.49
2018-11-26T14:30:23.714Z,4.48
2018-11-26T14:32:50.703Z,4.48
2018-11-26T14:35:17.702Z,4.44
2018-11-26T14:37:45.713Z,4.45
2018-11-26T14:40:16.152Z,4.40
2018-11-26T14:42:43.058Z,4.40
2018-11-26T14:45:11.181Z,4.37
2018-11-26T14:47:38.094Z,4.35
2018-11-26T14:50:08.034Z,4.33
2018-11-26T14:52:34.931Z,4.29
2018-11-26T14:55:01.827Z,4.30
2018-11-26T14:57:28.723Z,4.28
2018-11-26T14:59:55.607Z,4.26
2018-11-26T15:02:22.498Z,4.24
2018-11-26T15:04:49.419Z,4.21
2018-11-26T15:07:16.306Z,4.23
2018-11-26T15:09:43.213Z,4.22
2018-11-26T15:12:10.107Z,4.20
2018-11-26T15:14:36.998Z,4.19
2018-11-26T15:17:03.931Z,4.16
2018-11-26T15:19:30.830Z,4.14
2018-11-26T15:21:57.743Z,4.17
2018-11-26T15:24:24.638Z,4.12
2018-11-26T15:26:53.318Z,4.12
2018-11-26T15:29:18.446Z,4.10
2018-11-26T15:31:50.146Z,4.09
2018-11-26T15:34:12.229Z,4.08
2018-11-26T15:36:39.116Z,4.07
2018-11-26T15:39:08.096Z,4.09
2018-11-26T15:41:35.000Z,4.09
2018-11-26T15:44:01.896Z,4.06
2018-11-26T15:46:28.785Z,4.09
2018-11-26T15:48:55.675Z,4.09
2018-11-26T15:51:22.567Z,4.07
2018-11-26T15:53:49.442Z,4.06
2018-11-26T15:56:16.335Z,4.03
2018-11-26T15:58:43.211Z,4.04
2018-11-26T16:01:10.113Z,4.06
2018-11-26T16:03:36.995Z,4.06
2018-11-26T16:06:03.894Z,4.14
2018-11-26T16:08:30.794Z,4.19
2018-11-26T16:10:57.702Z,4.25
2018-11-26T16:13:24.586Z,4.24
2018-11-26T16:15:51.473Z,4.25
2018-11-26T16:18:20.473Z,4.26
2018-11-26T16:20:48.137Z,4.24
2018-11-26T16:23:15.031Z,4.23
2018-11-26T16:25:43.263Z,4.22
2018-11-26T16:28:12.034Z,4.20
2018-11-26T16:30:38.934Z,4.12
2018-11-26T16:33:06.787Z,4.09
2018-11-26T16:35:33.695Z,4.11
2018-11-26T16:38:00.662Z,3.97
2018-11-26T16:40:27.560Z,3.91
2018-11-26T16:42:54.477Z,3.84
2018-11-26T16:45:22.729Z,3.78
2018-11-26T16:47:51.330Z,3.72
2018-11-26T16:50:19.375Z,3.68
2018-11-26T16:52:46.278Z,3.61
2018-11-26T16:55:14.047Z,3.58
2018-11-26T16:57:41.043Z,3.52
2018-11-26T17:00:13.287Z,3.47
2018-11-26T17:02:40.183Z,3.36
2018-11-26T17:05:09.263Z,3.37
2018-11-26T17:07:36.166Z,3.37
2018-11-26T17:10:03.458Z,3.42
2018-11-26T17:12:30.338Z,3.39
2018-11-26T17:14:57.230Z,3.36
2018-11-26T17:17:24.126Z,3.33
2018-11-26T17:19:51.014Z,3.34
2018-11-26T17:22:17.904Z,3.33
2018-11-26T17:24:44.815Z,3.33
2018-11-26T17:27:12.668Z,3.30
2018-11-26T17:29:38.659Z,3.26
2018-11-26T17:32:05.578Z,3.22
2018-11-26T17:34:32.458Z,3.20
2018-11-26T17:36:59.350Z,3.21
2018-11-26T17:39:26.258Z,3.21
2018-11-26T17:41:53.147Z,3.19
2018-11-26T17:44:20.030Z,3.25
2018-11-26T17:46:46.919Z,3.30
2018-11-26T17:49:13.821Z,3.33
2018-11-26T17:51:40.695Z,3.35
2018-11-26T17:54:07.598Z,3.35
2018-11-26T17:56:34.486Z,3.30
2018-11-26T17:59:01.372Z,3.31
2018-11-26T18:01:33.554Z,3.34
2018-11-26T18:04:00.439Z,3.37
2018-11-26T18:06:27.322Z,3.40
2018-11-26T18:08:54.206Z,3.38
2018-11-26T18:11:21.107Z,3.34
2018-11-26T18:13:47.993Z,3.30
2018-11-26T18:16:15.073Z,3.28
2018-11-26T18:18:42.343Z,3.27
2018-11-26T18:21:09.498Z,3.26
2018-11-26T18:23:36.680Z,3.23
2018-11-26T18:26:04.377Z,3.21
2018-11-26T18:28:31.267Z,3.16
2018-11-26T18:30:58.186Z,3.12
2018-11-26T18:33:25.069Z,3.14
2018-11-26T18:35:52.151Z,3.11
2018-11-26T18:38:19.067Z,3.04
2018-11-26T18:40:48.621Z,3.03
2018-11-26T18:43:15.527Z,3.01
2018-11-26T18:45:42.433Z,3.06
2018-11-26T18:48:14.214Z,3.10
2018-11-26T18:50:41.153Z,3.16
2018-11-26T18:53:08.157Z,3.19
2018-11-26T18:55:35.262Z,3.17
2018-11-26T18:58:02.337Z,3.19
2018-11-26T19:00:34.107Z,3.20
2018-11-26T19:03:01.006Z,3.16
2018-11-26T19:05:27.888Z,3.13
2018-11-26T19:07:54.803Z,3.12
2018-11-26T19:10:24.967Z,3.16
2018-11-26T19:12:58.594Z,3.16
2018-11-26T19:15:31.159Z,3.18
2018-11-26T19:18:07.467Z,3.20
2018-11-26T19:20:34.386Z,3.21
2018-11-26T19:23:01.275Z,3.20
2018-11-26T19:25:28.173Z,3.22
2018-11-26T19:27:55.087Z,3.25
2018-11-26T19:30:23.226Z,3.23
2018-11-26T19:32:48.879Z,3.25
2018-11-26T19:35:15.769Z,3.28
2018-11-26T19:37:42.723Z,3.28
2018-11-26T19:40:12.827Z,3.28
2018-11-26T19:42:40.367Z,3.26
2018-11-26T19:45:12.022Z,3.28
2018-11-26T19:47:38.946Z,3.27
2018-11-26T19:50:07.649Z,3.25
2018-11-26T19:52:34.550Z,3.23
2018-11-26T19:55:01.434Z,3.18
2018-11-26T19:57:28.343Z,3.17
2018-11-26T19:59:55.226Z,3.20
2018-11-26T20:02:22.114Z,3.21
2018-11-26T20:04:52.786Z,3.22
2018-11-26T20:07:19.706Z,3.23
2018-11-26T20:09:46.736Z,3.22
2018-11-26T20:12:13.675Z,3.21
2018-11-26T20:14:40.558Z,3.19
2018-11-26T20:17:07.453Z,3.18
2018-11-26T20:19:34.347Z,3.16
2018-11-26T20:22:01.223Z,3.17
2018-11-26T20:24:28.115Z,3.19
2018-11-26T20:26:55.002Z,3.17
2018-11-26T20:29:21.878Z,3.17
2018-11-26T20:31:48.775Z,3.17
2018-11-26T20:34:15.654Z,3.12
2018-11-26T20:36:42.544Z,3.09
2018-11-26T20:39:09.494Z,3.08
2018-11-26T20:41:36.610Z,3.08
2018-11-26T20:44:03.506Z,3.07
2018-11-26T20:46:30.454Z,3.07
2018-11-26T20:48:57.353Z,3.09
2018-11-26T20:51:24.218Z,3.09
2018-11-26T20:53:51.098Z,3.06
2018-11-26T20:56:18.050Z,3.08
2018-11-26T20:58:45.670Z,3.08
2018-11-26T21:01:12.626Z,3.06
2018-11-26T21:03:40.233Z,3.06
2018-11-26T21:06:07.729Z,3.08
2018-11-26T21:08:35.298Z,3.06
2018-11-26T21:11:02.817Z,3.03
2018-11-26T21:13:30.035Z,3.04
2018-11-26T21:15:57.624Z,3.03
2018-11-26T21:18:24.603Z,3.02
2018-11-26T21:20:51.516Z,3.01
2018-11-26T21:23:35.518Z,3.04
2018-11-26T21:26:05.162Z,3.00
2018-11-26T21:28:32.763Z,2.99
2018-11-26T21:31:00.262Z,2.98
2018-11-26T21:33:27.328Z,2.98
2018-11-26T21:35:54.248Z,2.96
2018-11-26T21:38:21.366Z,2.93
2018-11-26T21:40:48.278Z,2.94
2018-11-26T21:43:15.171Z,2.90
2018-11-26T21:45:45.003Z,2.94
2018-11-26T21:48:12.565Z,2.93
2018-11-26T21:50:40.164Z,2.96
2018-11-26T21:53:09.825Z,2.96
2018-11-26T21:55:37.405Z,2.94
2018-11-26T21:58:05.602Z,2.94
2018-11-26T22:00:32.726Z,2.93
2018-11-26T22:03:05.303Z,2.96
2018-11-26T22:05:32.219Z,3.00
2018-11-26T22:07:59.102Z,2.99
2018-11-26T22:10:26.026Z,3.01
2018-11-26T22:12:54.050Z,2.98
2018-11-26T22:15:20.987Z,2.98
2018-11-26T22:17:47.880Z,2.97
2018-11-26T22:20:16.910Z,2.96
2018-11-26T22:22:43.875Z,2.95
2018-11-26T22:25:11.302Z,2.93
2018-11-26T22:27:38.295Z,2.94
2018-11-26T22:30:12.427Z,2.90
2018-11-26T22:32:39.320Z,2.90
2018-11-26T22:35:06.548Z,2.90
2018-11-26T22:37:33.442Z,2.89
2018-11-26T22:40:00.406Z,2.91
2018-11-26T22:42:27.313Z,2.89
2018-11-26T22:44:54.201Z,2.87
2018-11-26T22:47:21.134Z,2.87
2018-11-26T22:49:48.034Z,2.93
2018-11-26T22:52:14.946Z,2.94
2018-11-26T22:54:41.858Z,2.93
2018-11-26T22:57:08.763Z,2.88
2018-11-26T22:59:35.659Z,2.88
2018-11-26T23:02:02.545Z,2.85
2018-11-26T23:04:29.431Z,2.86
2018-11-26T23:06:56.330Z,2.84
2018-11-26T23:09:23.205Z,2.81
2018-11-26T23:11:50.119Z,2.79
2018-11-26T23:14:17.021Z,2.76
2018-11-26T23:16:46.181Z,2.75
2018-11-26T23:19:13.127Z,2.74
2018-11-26T23:21:40.026Z,2.72
2018-11-26T23:24:06.906Z,2.74
2018-11-26T23:26:33.812Z,2.70
2018-11-26T23:29:00.687Z,2.67
2018-11-26T23:31:27.586Z,2.63
2018-11-26T23:33:54.479Z,2.63
2018-11-26T23:36:21.371Z,2.65
2018-11-26T23:38:49.535Z,2.61
2018-11-26T23:41:16.906Z,2.58
2018-11-26T23:43:43.777Z,2.60
2018-11-26T23:46:10.671Z,2.57
2018-11-26T23:48:37.559Z,2.58
2018-11-26T23:51:05.425Z,2.56
2018-11-26T23:53:32.306Z,2.54
2018-11-26T23:55:59.235Z,2.55
2018-11-26T23:58:26.983Z,2.51
